createdAt,value
2022-07-27T03:02:36.765Z,16.20
2022-07-27T03:05:06.745Z,16.30
2022-07-27T03:07:34.241Z,16.30
2022-07-27T03:10:01.496Z,16.30
2022-07-27T03:12:28.741Z,16.40
2022-07-27T03:14:57.060Z,16.40
2022-07-27T03:17:24.285Z,16.30
2022-07-27T03:19:51.574Z,16.20
2022-07-27T03:22:18.789Z,16.30
2022-07-27T03:24:46.498Z,16.30
2022-07-27T03:27:13.674Z,16.30
2022-07-27T03:29:40.961Z,16.20
2022-07-27T03:32:08.246Z,16.20
2022-07-27T03:34:35.488Z,16.30
2022-07-27T03:37:02.765Z,16.40
2022-07-27T03:39:30.053Z,16.20
2022-07-27T03:41:57.262Z,16.10
2022-07-27T03:44:24.602Z,16.20
2022-07-27T03:46:51.806Z,16.10
2022-07-27T03:49:19.190Z,16.20
2022-07-27T03:51:46.436Z,16.20
2022-07-27T03:54:13.777Z,16.00
2022-07-27T03:56:41.011Z,16.00
2022-07-27T03:59:08.398Z,16.10
2022-07-27T04:01:36.278Z,16.10
2022-07-27T04:04:03.685Z,16.10
2022-07-27T04:06:30.914Z,16.20
2022-07-27T04:09:08.130Z,16.20
2022-07-27T04:11:37.606Z,16.10
2022-07-27T04:14:12.763Z,16.20
2022-07-27T04:16:41.414Z,16.20
2022-07-27T04:19:09.139Z,16.30
2022-07-27T04:21:36.544Z,16.30
2022-07-27T04:24:03.973Z,16.30
2022-07-27T04:26:31.469Z,16.20
2022-07-27T04:28:58.731Z,16.10
2022-07-27T04:31:26.174Z,16.10
2022-07-27T04:33:53.770Z,16.00
2022-07-27T04:36:21.067Z,16.10
2022-07-27T04:38:48.439Z,15.70
2022-07-27T04:41:15.673Z,15.60
2022-07-27T04:43:42.902Z,15.60
2022-07-27T04:46:14.837Z,15.90
2022-07-27T04:48:49.156Z,16.00
2022-07-27T04:51:18.024Z,16.00
2022-07-27T04:53:54.088Z,16.30
2022-07-27T04:56:27.187Z,16.30
2022-07-27T04:58:55.733Z,16.50
2022-07-27T05:01:23.364Z,16.70
2022-07-27T05:03:51.027Z,16.90
2022-07-27T05:06:18.418Z,17.00
2022-07-27T05:08:45.607Z,17.10
2022-07-27T05:11:12.875Z,17.20
2022-07-27T05:13:40.638Z,17.30
2022-07-27T05:16:09.352Z,17.50
2022-07-27T05:18:37.886Z,17.60
2022-07-27T05:21:05.702Z,17.50
2022-07-27T05:23:33.505Z,17.70
2022-07-27T05:26:00.775Z,17.90
2022-07-27T05:28:28.396Z,18.00
2022-07-27T05:30:55.589Z,18.00
2022-07-27T05:33:22.781Z,18.10
2022-07-27T05:35:49.952Z,18.20
2022-07-27T05:38:17.193Z,18.20
2022-07-27T05:40:45.797Z,17.90
2022-07-27T05:43:13.093Z,17.90
2022-07-27T05:45:40.693Z,17.80
2022-07-27T05:48:07.942Z,17.70
2022-07-27T05:50:35.172Z,17.80
2022-07-27T05:53:02.530Z,17.80
2022-07-27T05:55:29.834Z,17.50
2022-07-27T05:57:57.011Z,17.60
2022-07-27T06:00:24.532Z,17.60
2022-07-27T06:02:51.794Z,17.80
2022-07-27T06:05:19.061Z,18.00
2022-07-27T06:08:06.465Z,18.10
2022-07-27T06:10:35.147Z,18.30
2022-07-27T06:13:04.221Z,18.40
2022-07-27T06:15:32.270Z,18.50
2022-07-27T06:17:59.686Z,18.60
2022-07-27T06:20:27.560Z,18.60
2022-07-27T06:22:59.653Z,18.90
2022-07-27T06:25:34.439Z,19.10
2022-07-27T06:28:04.735Z,19.20
2022-07-27T06:30:32.492Z,19.10
2022-07-27T06:32:59.915Z,19.10
2022-07-27T06:35:27.691Z,19.30
2022-07-27T06:37:54.936Z,19.40
2022-07-27T06:40:23.780Z,19.50
2022-07-27T06:42:52.550Z,19.60
2022-07-27T06:45:19.869Z,19.60
2022-07-27T06:47:49.264Z,19.60
2022-07-27T06:50:18.532Z,19.80
2022-07-27T06:52:46.158Z,19.70
2022-07-27T06:55:13.781Z,19.70
2022-07-27T06:57:42.731Z,19.70
2022-07-27T07:00:10.803Z,19.80
2022-07-27T07:02:38.307Z,19.80
2022-07-27T07:05:05.968Z,19.90
2022-07-27T07:07:33.126Z,19.70
2022-07-27T07:10:00.342Z,19.70
2022-07-27T07:12:28.464Z,19.70
2022-07-27T07:14:55.717Z,19.70
2022-07-27T07:17:22.918Z,19.80
2022-07-27T07:19:50.089Z,19.50
2022-07-27T07:22:17.288Z,19.70
2022-07-27T07:24:44.473Z,19.90
2022-07-27T07:27:11.724Z,20.10
2022-07-27T07:29:38.902Z,20.00
2022-07-27T07:32:06.445Z,20.30
2022-07-27T07:34:33.617Z,20.50
2022-07-27T07:37:00.777Z,20.60
2022-07-27T07:39:31.345Z,20.90
2022-07-27T07:41:59.032Z,20.90
2022-07-27T07:44:26.312Z,21.20
2022-07-27T07:46:53.625Z,21.10
2022-07-27T07:49:39.259Z,21.30
2022-07-27T07:52:07.993Z,21.50
2022-07-27T07:54:35.424Z,21.60
2022-07-27T07:57:02.718Z,21.60
2022-07-27T07:59:29.982Z,21.70
2022-07-27T08:01:57.241Z,21.80
2022-07-27T08:04:24.462Z,21.70
2022-07-27T08:06:52.302Z,21.60
2022-07-27T08:09:21.667Z,21.50
2022-07-27T08:11:48.866Z,21.50
2022-07-27T08:14:16.198Z,21.50
2022-07-27T08:16:43.451Z,21.70
2022-07-27T08:19:11.885Z,21.80
2022-07-27T08:21:39.425Z,22.10
2022-07-27T08:24:06.827Z,22.30
2022-07-27T08:26:34.021Z,22.30
2022-07-27T08:29:11.241Z,22.20
2022-07-27T08:31:52.736Z,22.10
2022-07-27T08:34:20.652Z,22.10
2022-07-27T08:36:47.860Z,22.40
2022-07-27T08:39:52.669Z,22.70
2022-07-27T08:42:04.559Z,22.90
2022-07-27T08:44:33.462Z,22.90
2022-07-27T08:47:04.359Z,23.00
2022-07-27T08:49:43.046Z,22.70
2022-07-27T08:52:12.176Z,22.70
2022-07-27T08:54:40.939Z,22.90
2022-07-27T08:57:09.517Z,23.40
2022-07-27T08:59:37.270Z,23.40
2022-07-27T09:02:09.026Z,23.60
2022-07-27T09:04:36.412Z,24.30
2022-07-27T09:07:03.677Z,24.40
2022-07-27T09:09:46.887Z,24.40
2022-07-27T09:12:14.210Z,24.90
2022-07-27T09:14:42.250Z,25.20
2022-07-27T09:20:19.741Z,25.60
2022-07-27T09:22:53.590Z,25.30
2022-07-27T09:25:52.583Z,25.00
2022-07-27T09:28:13.982Z,25.60
2022-07-27T09:30:43.602Z,25.30
2022-07-27T09:33:11.417Z,25.30
2022-07-27T09:35:38.875Z,25.20
2022-07-27T09:38:25.091Z,25.80
2022-07-27T09:41:06.455Z,25.60
2022-07-27T09:44:29.912Z,25.80
2022-07-27T09:46:39.206Z,26.10
2022-07-27T09:49:25.385Z,26.20
2022-07-27T09:52:01.672Z,25.90
2022-07-27T09:54:43.326Z,25.60
2022-07-27T09:57:10.904Z,25.60
2022-07-27T09:59:38.175Z,25.60
2022-07-27T10:02:05.624Z,25.40
2022-07-27T10:04:33.866Z,25.40
2022-07-27T10:07:04.442Z,25.20
2022-07-27T10:09:33.352Z,25.20
2022-07-27T10:12:01.830Z,25.40
2022-07-27T10:14:29.169Z,25.30
2022-07-27T10:16:56.849Z,25.60
2022-07-27T10:19:30.964Z,25.50
2022-07-27T10:21:58.141Z,25.40
2022-07-27T10:24:37.619Z,25.20
2022-07-27T10:27:28.168Z,25.20
2022-07-27T10:29:57.564Z,25.20
2022-07-27T10:32:32.503Z,25.00
2022-07-27T10:35:01.496Z,24.90
2022-07-27T10:37:29.796Z,25.00
2022-07-27T10:40:20.748Z,25.20
2022-07-27T10:42:54.242Z,25.50
2022-07-27T10:45:22.425Z,25.80
2022-07-27T10:47:52.346Z,25.90
2022-07-27T10:50:27.035Z,25.50
2022-07-27T10:52:56.892Z,25.10
2022-07-27T10:55:30.129Z,25.00
2022-07-27T10:58:03.303Z,24.90
2022-07-27T11:00:53.970Z,24.50
2022-07-27T11:03:23.285Z,24.50
2022-07-27T11:06:31.830Z,24.50
2022-07-27T11:11:53.570Z,25.30
2022-07-27T11:14:30.114Z,25.70
2022-07-27T11:17:24.440Z,25.60
2022-07-27T11:19:58.424Z,25.60
2022-07-27T11:23:20.563Z,25.30
2022-07-27T11:25:27.220Z,25.30
2022-07-27T11:27:54.556Z,25.60
2022-07-27T11:30:28.763Z,25.70
2022-07-27T11:32:56.660Z,25.50
2022-07-27T11:35:24.121Z,25.80
2022-07-27T11:37:59.650Z,25.90
2022-07-27T11:43:33.871Z,25.20
2022-07-27T11:46:15.684Z,25.00
2022-07-27T11:49:06.060Z,25.20
2022-07-27T11:51:35.899Z,25.30
2022-07-27T11:54:06.599Z,25.60
2022-07-27T11:56:36.755Z,25.60
2022-07-27T11:59:09.219Z,25.90
2022-07-27T12:01:56.116Z,26.20
2022-07-27T12:04:24.658Z,26.10
2022-07-27T12:06:59.395Z,26.10
2022-07-27T12:09:27.516Z,26.00
2022-07-27T12:12:20.710Z,25.60
2022-07-27T12:15:43.012Z,25.70
2022-07-27T12:17:59.280Z,26.00
2022-07-27T12:20:34.707Z,26.10
2022-07-27T12:23:08.958Z,26.00
2022-07-27T12:25:36.836Z,26.30
2022-07-27T12:28:05.221Z,26.50
2022-07-27T12:30:38.194Z,27.00
2022-07-27T12:33:07.712Z,26.90
2022-07-27T12:35:47.080Z,27.00
2022-07-27T12:38:14.540Z,27.10
2022-07-27T12:40:59.895Z,26.80
2022-07-27T12:43:28.287Z,26.70
2022-07-27T12:45:56.051Z,26.40
2022-07-27T12:48:28.821Z,26.10
2022-07-27T12:50:59.832Z,26.10
2022-07-27T12:53:27.544Z,26.50
2022-07-27T12:55:59.761Z,27.00
2022-07-27T12:58:29.873Z,27.30
2022-07-27T13:00:57.283Z,27.70
2022-07-27T13:03:24.588Z,27.40
2022-07-27T13:05:51.813Z,27.10
2022-07-27T13:08:18.989Z,26.90
2022-07-27T13:10:48.039Z,26.90
2022-07-27T13:13:15.480Z,26.90
2022-07-27T13:15:42.668Z,27.10
2022-07-27T13:18:09.873Z,26.90
2022-07-27T13:20:37.068Z,26.40
2022-07-27T13:23:08.902Z,26.30
2022-07-27T13:25:39.699Z,26.00
2022-07-27T13:28:10.488Z,25.90
2022-07-27T13:30:37.890Z,26.10
2022-07-27T13:33:05.118Z,26.10
2022-07-27T13:35:32.503Z,26.20
2022-07-27T13:37:59.770Z,26.00
2022-07-27T13:40:26.953Z,25.70
2022-07-27T13:42:54.281Z,25.90
2022-07-27T13:45:21.624Z,26.30
2022-07-27T13:47:48.964Z,26.20
2022-07-27T13:50:19.803Z,26.30
2022-07-27T13:52:48.412Z,26.30
2022-07-27T13:55:16.950Z,26.60
2022-07-27T13:57:44.370Z,26.80
2022-07-27T14:00:12.586Z,26.70
2022-07-27T14:02:39.991Z,26.60
2022-07-27T14:05:10.233Z,26.30
2022-07-27T14:07:42.011Z,25.90
2022-07-27T14:10:30.911Z,25.80
2022-07-27T14:13:07.443Z,25.80
2022-07-27T14:15:50.776Z,25.60
2022-07-27T14:18:27.593Z,25.60
2022-07-27T14:20:56.657Z,25.60
2022-07-27T14:23:25.209Z,25.70
2022-07-27T14:25:53.591Z,25.90
2022-07-27T14:28:21.442Z,26.20
2022-07-27T14:30:49.102Z,26.00
2022-07-27T14:33:17.228Z,26.00
2022-07-27T14:35:45.940Z,25.40
2022-07-27T14:38:13.726Z,25.30
2022-07-27T14:40:53.771Z,25.30
2022-07-27T14:43:22.156Z,25.20
2022-07-27T14:45:49.618Z,25.30
2022-07-27T14:48:28.189Z,25.30
2022-07-27T14:51:00.968Z,25.40
2022-07-27T14:53:28.398Z,25.80
2022-07-27T14:55:55.634Z,25.90
2022-07-27T14:58:22.993Z,26.00
2022-07-27T15:00:50.280Z,25.90
2022-07-27T15:03:19.769Z,25.90
2022-07-27T15:05:49.707Z,25.90
2022-07-27T15:08:20.149Z,26.00
2022-07-27T15:10:48.754Z,26.30
2022-07-27T15:13:16.929Z,26.30
2022-07-27T15:15:44.776Z,26.60
2022-07-27T15:18:11.981Z,26.70
2022-07-27T15:20:39.510Z,26.30
2022-07-27T15:23:06.880Z,26.20
2022-07-27T15:25:34.246Z,25.80
2022-07-27T15:28:01.604Z,25.60
2022-07-27T15:30:28.966Z,25.60
2022-07-27T15:32:56.186Z,25.50
2022-07-27T15:35:23.456Z,25.70
2022-07-27T15:37:53.933Z,25.70
2022-07-27T15:40:38.048Z,25.70
2022-07-27T15:43:07.498Z,25.60
2022-07-27T15:45:38.911Z,25.90
2022-07-27T15:48:08.538Z,26.10
2022-07-27T15:50:37.427Z,26.00
2022-07-27T15:53:05.749Z,25.90
2022-07-27T15:55:33.953Z,25.40
2022-07-27T15:58:01.342Z,25.10
2022-07-27T16:00:28.959Z,24.80
2022-07-27T16:02:56.851Z,24.70
2022-07-27T16:05:24.234Z,24.50
2022-07-27T16:07:51.414Z,24.50
2022-07-27T16:10:18.729Z,24.50
2022-07-27T16:12:45.989Z,24.60
2022-07-27T16:15:13.204Z,24.50
2022-07-27T16:17:40.577Z,24.50
2022-07-27T16:20:08.322Z,24.60
2022-07-27T16:22:37.957Z,24.60
2022-07-27T16:25:05.608Z,24.60
2022-07-27T16:27:32.820Z,24.50
2022-07-27T16:30:00.089Z,24.30
2022-07-27T16:32:27.324Z,24.20
2022-07-27T16:34:54.517Z,24.10
2022-07-27T16:37:21.747Z,24.20
2022-07-27T16:39:48.886Z,24.20
2022-07-27T16:42:16.130Z,24.20
2022-07-27T16:44:43.311Z,24.30
2022-07-27T16:47:10.600Z,24.30
2022-07-27T16:49:37.802Z,24.50
2022-07-27T16:52:06.229Z,24.40
2022-07-27T16:54:38.826Z,24.40
2022-07-27T16:57:09.129Z,24.30
2022-07-27T16:59:39.041Z,24.30
2022-07-27T17:02:06.296Z,24.20
2022-07-27T17:04:34.151Z,24.30
2022-07-27T17:07:01.448Z,24.30
2022-07-27T17:09:28.829Z,24.50
2022-07-27T17:11:56.066Z,24.50
2022-07-27T17:14:23.441Z,24.40
2022-07-27T17:16:52.198Z,24.40
2022-07-27T17:19:20.369Z,24.20
2022-07-27T17:21:48.043Z,24.20
2022-07-27T17:24:15.560Z,24.10
2022-07-27T17:26:42.817Z,24.10
2022-07-27T17:29:10.336Z,24.10
2022-07-27T17:31:37.937Z,24.10
2022-07-27T17:34:05.221Z,24.00
2022-07-27T17:36:32.460Z,23.70
2022-07-27T17:39:00.961Z,23.50
2022-07-27T17:41:28.173Z,23.50
2022-07-27T17:43:55.464Z,23.40
2022-07-27T17:46:23.140Z,23.50
2022-07-27T17:48:51.654Z,23.60
2022-07-27T17:51:19.463Z,23.40
2022-07-27T17:53:47.093Z,23.30
2022-07-27T17:56:14.349Z,23.30
2022-07-27T17:58:43.031Z,23.30
2022-07-27T18:01:10.421Z,23.20
2022-07-27T18:03:37.791Z,23.10
2022-07-27T18:06:05.093Z,23.10
2022-07-27T18:08:32.271Z,23.10
2022-07-27T18:10:59.609Z,23.00
2022-07-27T18:13:37.897Z,23.00
2022-07-27T18:16:11.965Z,23.00
2022-07-27T18:18:41.306Z,23.00
2022-07-27T18:21:10.619Z,23.00
2022-07-27T18:23:38.251Z,22.90
2022-07-27T18:26:06.050Z,22.80
2022-07-27T18:28:39.498Z,22.80
2022-07-27T18:31:09.783Z,22.70
2022-07-27T18:33:37.899Z,22.60
2022-07-27T18:36:06.287Z,22.50
2022-07-27T18:38:33.728Z,22.50
2022-07-27T18:41:01.029Z,22.40
2022-07-27T18:43:28.226Z,22.40
2022-07-27T18:45:55.769Z,22.20
2022-07-27T18:48:23.037Z,22.20
2022-07-27T18:50:51.877Z,21.80
2022-07-27T18:53:19.296Z,21.80
2022-07-27T18:55:46.492Z,21.70
2022-07-27T18:58:13.719Z,21.70
2022-07-27T19:00:41.004Z,21.60
2022-07-27T19:03:08.298Z,21.60
2022-07-27T19:05:40.705Z,21.40
2022-07-27T19:08:12.881Z,21.30
2022-07-27T19:10:41.538Z,21.10
2022-07-27T19:13:09.065Z,21.10
2022-07-27T19:15:37.087Z,20.90
2022-07-27T19:18:05.169Z,20.60
2022-07-27T19:20:32.469Z,20.40
2022-07-27T19:23:00.728Z,20.40
2022-07-27T19:25:30.241Z,20.30
2022-07-27T19:27:57.656Z,20.40
2022-07-27T19:30:24.977Z,20.40
2022-07-27T19:32:52.313Z,20.40
2022-07-27T19:35:19.619Z,20.30
2022-07-27T19:37:46.875Z,20.20
2022-07-27T19:40:42.838Z,20.20
2022-07-27T19:43:06.383Z,20.00
2022-07-27T19:45:35.245Z,19.70
2022-07-27T19:48:05.520Z,19.70
2022-07-27T19:50:33.019Z,19.40
2022-07-27T19:53:00.934Z,19.30
2022-07-27T19:55:28.147Z,19.20
2022-07-27T19:57:55.366Z,19.10
2022-07-27T20:00:22.713Z,19.00
2022-07-27T20:02:50.322Z,19.00
2022-07-27T20:05:17.954Z,18.90
2022-07-27T20:07:45.882Z,18.80
2022-07-27T20:10:13.219Z,18.70
2022-07-27T20:12:40.482Z,18.70
2022-07-27T20:15:08.198Z,18.60
2022-07-27T20:17:40.816Z,18.40
2022-07-27T20:20:10.761Z,18.50
2022-07-27T20:22:41.204Z,18.50
2022-07-27T20:25:10.638Z,18.60
2022-07-27T20:27:38.821Z,18.50
2022-07-27T20:30:07.224Z,18.50
2022-07-27T20:32:35.203Z,18.50
2022-07-27T20:35:02.644Z,18.50
2022-07-27T20:37:29.993Z,18.50
2022-07-27T20:39:57.207Z,18.50
2022-07-27T20:42:24.522Z,18.50
2022-07-27T20:44:51.758Z,18.50
2022-07-27T20:47:19.079Z,18.50
2022-07-27T20:49:46.341Z,18.50
2022-07-27T20:52:13.533Z,18.60
2022-07-27T20:54:40.843Z,18.70
2022-07-27T20:57:08.118Z,18.80
2022-07-27T20:59:35.468Z,18.90
